Latest Weather Observations for Viewbank

IDV60901

Issued at 7:41 am EDT Saturday 13 February 2016 (issued every 10 minutes, with the page automatically refreshed every 10 minutes)

About weather observations | Map of Melbourne area stations | Latest observations for Melbourne area | Other Formats
Station Details ID: 086068 Name: VIEWBANK Lat: -37.74 Lon: 145.10 Height: 66.1 m
Data from the previous 72 hours. | See also: Recent months at Viewbank
Date/Time
EDT
Tmp

°C
App
Tmp
°C
Dew
Point
°C
Rel
Hum
%
Delta-T

°C
Wind Press
QNH
hPa
Press
MSL
hPa
Rain
since
9 am
mm
Dir
 
Spd
km/h
Gust
km/h
Spd
kts
Gust
kts
13/07:30am 16.2 17.2 14.4 89 1.0 E 2 6 1 3 1008.7 1008.5 0.0
13/07:00am 15.3 17.0 15.1 99 0.1 CALM 0 6 0 3 1008.6 1008.4 0.0
13/06:30am 15.4 15.8 15.2 99 0.1 E 7 9 4 5 1008.5 1008.3 0.0
13/06:00am 15.6 16.0 15.4 99 0.1 E 7 9 4 5 1008.2 1008.0 0.0
13/05:30am 15.8 16.5 15.6 99 0.1 ENE 6 7 3 4 1008.3 1008.1 0.0
13/05:00am 15.5 15.9 15.3 99 0.1 E 7 9 4 5 1008.2 1008.0 0.0
13/04:30am 16.1 17.7 15.9 99 0.1 ENE 2 6 1 3 1008.3 1008.1 0.0
13/04:00am 16.0 16.8 15.8 99 0.1 E 6 9 3 5 1008.7 1008.5 0.0
13/03:30am 16.5 18.1 16.0 97 0.3 E 2 7 1 4 1008.9 1008.7 0.0
13/03:00am 17.0 19.1 16.2 95 0.5 CALM 0 0 0 0 1009.2 1009.0 0.0
13/02:30am 17.3 18.9 16.0 92 0.8 NNW 2 7 1 4 1009.3 1009.1 0.0
13/02:00am 17.9 19.9 15.9 88 1.2 CALM 0 0 0 0 1009.7 1009.5 0.0
13/01:30am 18.5 20.2 16.1 86 1.4 NNW 2 7 1 4 1010.0 1009.8 0.0
13/01:00am 18.7 19.8 15.6 82 1.8 NNW 4 7 2 4 1010.3 1010.1 0.0
13/12:30am 19.5 20.2 15.6 78 2.3 NW 6 7 3 4 1010.7 1010.5 0.0
13/12:00am 19.6 21.2 14.8 74 2.8 CALM 0 6 0 3 1011.0 1010.8 0.0
 
Date/Time
EDT
Tmp

°C
App
Tmp
°C
Dew
Point
°C
Rel
Hum
%
Delta-T

°C
Wind Press
QNH
hPa
Press
MSL
hPa
Rain
since
9 am
mm
Dir
 
Spd
km/h
Gust
km/h
Spd
kts
Gust
kts
12/11:30pm 20.3 21.7 15.5 74 2.9 SW 2 6 1 3 1011.3 1011.1 0.0
12/11:00pm 20.4 21.4 15.4 73 3.0 SW 4 6 2 3 1011.5 1011.3 0.0
12/10:30pm 20.9 21.3 15.2 70 3.4 SW 7 11 4 6 1011.8 1011.6 0.0
12/10:00pm 21.5 21.8 15.1 67 3.8 SW 7 13 4 7 1012.0 1011.8 0.0
12/09:30pm 22.1 23.4 15.2 65 4.1 SSW 2 7 1 4 1011.7 1011.5 0.0
12/09:00pm 22.6 22.2 15.2 63 4.4 SSW 11 17 6 9 1011.6 1011.4 0.0
12/08:30pm 23.3 23.7 16.4 65 4.2 WSW 9 13 5 7 1011.3 1011.1 0.0
12/08:00pm 23.5 23.4 17.0 67 4.0 WSW 13 17 7 9 1011.0 1010.8 0.0
12/07:30pm 23.6 22.7 16.9 66 4.1 WSW 17 22 9 12 1010.9 1010.7 0.0
12/07:00pm 25.8 25.2 16.6 56 5.7 WSW 15 20 8 11 1010.8 1010.6 0.0
12/06:30pm 26.4 25.3 16.3 53 6.2 SW 17 24 9 13 1010.8 1010.6 0.0
12/06:00pm 29.1 27.9 14.1 40 9.0 SSW 13 20 7 11 1010.8 1010.6 0.0
12/05:30pm 29.0 28.1 15.9 45 8.1 WSW 15 24 8 13 1011.0 1010.8 0.0
12/05:00pm 28.8 27.3 15.3 43 8.3 SW 17 24 9 13 1011.2 1011.0 0.0
12/04:30pm 29.2 27.3 14.2 40 9.1 SW 17 22 9 12 1011.5 1011.3 0.0
12/04:00pm 29.6 28.4 15.0 41 8.9 SW 15 20 8 11 1011.9 1011.7 0.0
12/03:30pm 28.2 26.8 14.4 42 8.3 SSW 15 24 8 13 1012.3 1012.0 0.0
12/03:00pm 28.2 27.2 13.3 40 8.8 SW 11 19 6 10 1012.9 1012.6 0.0
12/02:30pm 28.4 27.4 13.5 40 8.9 SSW 11 17 6 9 1013.4 1013.1 0.0
12/02:00pm 27.2 26.6 11.7 38 8.9 ENE 6 11 3 6 1013.8 1013.5 0.0
12/01:30pm 26.3 25.9 12.4 42 8.1 ESE 6 11 3 6 1014.3 1014.0 0.0
12/01:00pm 25.3 24.4 12.5 45 7.4 NW 9 17 5 9 1014.7 1014.4 0.0
12/12:30pm 24.2 23.7 12.5 48 6.7 SSW 7 13 4 7 1015.1 1014.8 0.0
12/12:00pm 23.1 22.8 13.3 54 5.7 E 7 11 4 6 1015.6 1015.3 0.0
12/11:30am 21.8 22.0 13.2 58 4.9 SSE 4 11 2 6 1015.9 1015.6 0.0
12/11:00am 20.7 20.6 13.4 63 4.2 E 6 13 3 7 1015.9 1015.6 0.0
12/10:30am 19.4 18.7 13.1 67 3.6 E 9 13 5 7 1016.3 1016.0 0.0
12/10:00am 18.2 18.8 13.1 72 2.9 E 2 6 1 3 1016.6 1016.4 0.0
12/09:30am 18.0 17.8 13.1 73 2.8 E 6 11 3 6 1016.7 1016.5 0.0
12/09:00am 17.9 17.6 13.4 75 2.5 ESE 7 11 4 6 1016.7 1016.5 0.0
12/08:30am 17.6 17.6 13.7 78 2.2 SE 6 9 3 5 1016.8 1016.6 0.0
12/08:00am 17.0 18.2 13.7 81 1.9 CALM 0 0 0 0 1016.7 1016.5 0.0
12/07:30am 16.6 17.8 13.9 84 1.5 CALM 0 0 0 0 1016.6 1016.4 0.0
12/07:00am 16.2 16.2 13.7 85 1.4 SW 6 7 3 4 1016.6 1016.4 0.0
12/06:30am 16.0 15.9 14.0 88 1.1 WSW 7 11 4 6 1016.6 1016.4 0.0
12/06:00am 15.9 15.7 13.6 86 1.3 SW 7 9 4 5 1016.2 1015.9 0.0
12/05:30am 15.6 16.1 14.0 90 0.9 S 4 9 2 5 1015.8 1015.5 0.0
12/05:00am 15.4 15.7 14.4 94 0.6 WSW 6 7 3 4 1015.9 1015.6 0.0
12/04:30am 15.2 15.2 14.1 93 0.6 WSW 7 9 4 5 1016.0 1015.7 0.0
12/04:00am 15.6 15.5 14.0 90 0.9 W 7 11 4 6 1016.0 1015.7 0.0
12/03:30am 15.8 15.6 13.5 86 1.3 WSW 7 11 4 6 1016.0 1015.7 0.0
12/03:00am 16.3 15.8 12.8 80 1.9 SW 7 13 4 7 1016.0 1015.7 0.0
12/02:30am 16.5 15.7 12.8 79 2.1 SW 9 15 5 8 1016.2 1015.9 0.0
12/02:00am 16.8 16.0 12.9 78 2.2 SSW 9 17 5 9 1016.3 1016.0 0.0
12/01:30am 17.1 16.3 12.8 76 2.4 SW 9 15 5 8 1016.7 1016.5 0.0
12/01:00am 17.4 16.2 12.9 75 2.5 SSW 11 15 6 8 1017.0 1016.8 0.0
12/12:30am 17.7 16.9 13.0 74 2.6 SSW 9 17 5 9 1017.2 1017.0 0.0
12/12:00am 17.8 17.0 12.9 73 2.7 SSW 9 19 5 10 1017.3 1017.1 0.0
 
Date/Time
EDT
Tmp

°C
App
Tmp
°C
Dew
Point
°C
Rel
Hum
%
Delta-T

°C
Wind Press
QNH
hPa
Press
MSL
hPa
Rain
since
9 am
mm
Dir
 
Spd
km/h
Gust
km/h
Spd
kts
Gust
kts
11/11:30pm 17.8 17.4 12.9 73 2.7 SSW 7 13 4 7 1017.5 1017.3 0.0
11/11:00pm 18.2 16.9 12.6 70 3.1 SSW 11 17 6 9 1017.8 1017.6 0.0
11/10:30pm 18.6 17.6 12.4 67 3.5 SSW 9 15 5 8 1017.7 1017.5 0.0
11/10:00pm 18.9 17.1 12.2 65 3.7 SSW 13 22 7 12 1017.5 1017.3 0.0
11/09:30pm 19.1 17.4 12.4 65 3.8 S 13 22 7 12 1017.0 1016.8 0.0
11/09:00pm 19.5 18.4 12.0 62 4.2 S 9 17 5 9 1016.4 1016.1 0.0
11/08:30pm 20.3 18.8 11.8 58 4.7 S 11 20 6 11 1016.2 1015.9 0.0
11/08:00pm 21.3 19.5 12.2 56 5.1 SSW 13 22 7 12 1016.0 1015.7 0.0
11/07:30pm 22.4 20.1 12.9 55 5.5 SSW 17 28 9 15 1015.6 1015.3 0.0
11/07:00pm 23.1 21.2 13.0 53 5.8 SSW 15 26 8 14 1015.1 1014.8 0.0
11/06:30pm 24.3 22.4 14.1 53 6.0 SW 17 26 9 14 1014.7 1014.4 0.0
11/06:00pm 24.0 21.5 14.1 54 5.8 SW 20 32 11 17 1014.5 1014.2 0.0
11/05:30pm 24.4 21.8 13.9 52 6.2 SW 20 35 11 19 1014.6 1014.3 0.0
11/05:00pm 24.7 21.8 13.9 51 6.4 SW 22 35 12 19 1014.6 1014.3 0.0
11/04:30pm 25.0 21.7 13.9 50 6.6 SW 24 37 13 20 1014.4 1014.1 0.0
11/04:00pm 25.3 21.8 13.5 48 6.9 WSW 24 37 13 20 1014.4 1014.1 0.0
11/03:30pm 26.6 24.2 14.4 47 7.3 WSW 20 33 11 18 1014.3 1014.0 0.0
11/03:00pm 26.0 23.3 13.5 46 7.4 SSW 20 32 11 17 1014.4 1014.1 0.0
11/02:30pm 26.0 24.1 11.7 41 8.2 S 13 20 7 11 1014.8 1014.5 0.0
11/02:00pm 26.2 24.7 11.9 41 8.2 SSW 11 26 6 14 1015.1 1014.8 0.0
11/01:30pm 24.9 22.7 10.8 41 7.9 SSW 13 24 7 13 1015.3 1015.0 0.0
11/01:00pm 25.1 22.8 11.6 42 7.7 SSE 15 28 8 15 1015.5 1015.2 0.0
11/12:30pm 24.5 22.7 12.1 46 7.1 S 13 22 7 12 1015.9 1015.6 0.0
11/12:00pm 23.7 22.1 11.7 47 6.8 SE 11 19 6 10 1016.5 1016.2 0.0
11/11:30am 23.2 21.3 11.9 49 6.4 SE 13 22 7 12 1016.8 1016.6 0.0
11/11:00am 22.5 20.6 11.9 51 6.0 SSE 13 22 7 12 1017.1 1016.9 0.0
11/10:30am 21.9 21.5 13.0 57 5.1 S 7 15 4 8 1017.1 1016.9 0.0
11/10:00am 20.3 19.4 12.5 61 4.4 SSE 9 17 5 9 1017.3 1017.1 0.0
11/09:30am 20.0 19.3 13.2 65 3.9 SE 9 17 5 9 1017.4 1017.2 0.0
11/09:00am 19.5 18.3 13.9 70 3.2 SE 13 19 7 10 1017.4 1017.2 0.0
11/08:30am 18.4 18.5 14.5 78 2.3 SSE 7 13 4 7 1017.3 1017.1 0.0
11/08:00am 17.5 17.8 14.6 83 1.7 SSW 6 9 3 5 1017.1 1016.9 0.0
11/07:30am 16.8 18.4 14.8 88 1.2 CALM 0 6 0 3 1016.8 1016.6 0.0
11/07:00am 16.2 17.3 14.7 91 0.9 SSE 2 6 1 3 1016.6 1016.4 0.0
11/06:30am 16.0 17.4 14.5 91 0.9 CALM 0 0 0 0 1016.2 1015.9 0.0
11/06:00am 16.5 17.1 14.3 87 1.3 S 4 7 2 4 1015.9 1015.6 0.0
11/05:30am 17.0 18.0 14.3 84 1.5 S 2 7 1 4 1015.8 1015.5 0.0
11/05:00am 17.2 17.8 14.3 83 1.7 S 4 7 2 4 1015.6 1015.3 0.0
11/04:30am 17.0 18.0 14.3 84 1.5 SSE 2 6 1 3 1015.5 1015.2 0.0
11/04:00am 16.8 18.2 14.3 85 1.4 CALM 0 0 0 0 1015.4 1015.1 0.0
11/03:30am 16.7 17.7 14.2 85 1.4 SSE 2 7 1 4 1015.4 1015.1 0.0
11/03:00am 16.5 17.1 14.2 86 1.3 SSW 4 9 2 5 1015.6 1015.3 0.0
11/02:30am 16.5 17.8 14.0 85 1.4 CALM 0 4 0 2 1015.8 1015.5 0.0
11/02:00am 16.9 16.8 13.8 82 1.8 SSW 7 11 4 6 1016.1 1015.8 0.0
11/01:30am 17.2 16.8 14.1 82 1.8 SSW 9 13 5 7 1016.3 1016.0 0.0
11/01:00am 17.1 17.1 14.2 83 1.7 SSW 7 11 4 6 1016.5 1016.2 0.0
11/12:30am 16.9 16.8 13.8 82 1.8 SSW 7 13 4 7 1016.6 1016.4 0.0
11/12:00am 17.1 16.5 13.4 79 2.1 SSW 9 13 5 7 1016.6 1016.4 0.0
 
Date/Time
EDT
Tmp

°C
App
Tmp
°C
Dew
Point
°C
Rel
Hum
%
Delta-T

°C
Wind Press
QNH
hPa
Press
MSL
hPa
Rain
since
9 am
mm
Dir
 
Spd
km/h
Gust
km/h
Spd
kts
Gust
kts
10/11:30pm 17.4 16.7 13.1 76 2.4 SSW 9 15 5 8 1016.6 1016.4 0.0
10/11:00pm 18.0 17.3 13.1 73 2.8 SSW 9 19 5 10 1016.6 1016.4 0.0
10/10:30pm 18.4 16.7 12.4 68 3.3 SSW 13 19 7 10 1016.4 1016.1 0.0
10/10:00pm 18.9 16.8 12.4 66 3.6 SSW 15 22 8 12 1016.1 1015.8 0.0
10/09:30pm 19.5 18.3 12.8 65 3.8 SSW 11 20 6 11 1015.8 1015.5 0.0
10/09:00pm 19.6 18.9 14.2 71 3.1 WSW 11 17 6 9 1015.3 1015.0 0.0
10/08:30pm 20.2 18.6 13.9 67 3.6 WSW 15 20 8 11 1015.1 1014.8 0.0
10/08:00pm 21.7 19.8 13.1 58 4.9 SW 15 24 8 13 1014.8 1014.5 0.0
10/07:30pm 24.1 20.8 8.1 36 8.5 SSW 15 24 8 13 1014.5 1014.2 0.0
10/07:00pm 24.4 22.1 11.7 45 7.2 SW 15 24 8 13 1014.2 1013.9 0.0
10/06:30pm 24.6 22.8 12.2 46 7.1 SSW 13 20 7 11 1014.1 1013.8 0.0
10/06:00pm 24.7 22.3 12.6 47 7.0 SSW 17 24 9 13 1014.0 1013.7 0.0
10/05:30pm 24.6 22.3 12.9 48 6.8 SSW 17 26 9 14 1013.9 1013.6 0.0
10/05:00pm 24.5 22.0 14.0 52 6.2 SW 20 28 11 15 1013.8 1013.5 0.0
10/04:30pm 25.7 23.5 13.2 46 7.3 SW 17 26 9 14 1013.7 1013.4 0.0
10/04:00pm 25.3 23.2 13.5 48 6.9 SW 17 28 9 15 1013.8 1013.5 0.0
10/03:30pm 25.1 22.5 13.9 49 6.6 SW 20 30 11 16 1014.1 1013.8 0.0
10/03:00pm 25.0 22.5 13.5 48 6.7 SW 19 32 10 17 1014.1 1013.8 0.0
10/02:30pm 25.7 23.6 13.5 46 7.2 WSW 17 28 9 15 1014.3 1014.0 0.0
10/02:00pm 24.3 21.9 12.6 48 6.7 WSW 17 22 9 12 1014.5 1014.2 0.0
10/01:30pm 25.3 23.4 14.1 50 6.6 WSW 17 24 9 13 1014.8 1014.5 0.0
10/01:00pm 24.4 23.0 13.3 50 6.5 SW 13 24 7 13 1015.0 1014.7 0.0
10/12:30pm 23.0 23.0 13.5 55 5.5 WSW 6 15 3 8 1015.5 1015.2 0.0
10/12:00pm 23.4 23.4 14.1 56 5.5 S 7 13 4 7 1015.8 1015.5 0.0
10/11:30am 21.0 20.7 13.4 62 4.4 SSW 7 15 4 8 1016.0 1015.7 0.0
10/11:00am 19.9 19.9 13.6 67 3.6 SW 6 9 3 5 1016.3 1016.0 0.0
10/10:30am 19.6 20.0 13.8 69 3.3 SSE 4 13 2 7 1016.5 1016.2 0.0
10/10:00am 19.0 19.1 13.8 72 3.0 S 6 7 3 4 1016.5 1016.2 0.0
10/09:30am 18.8 18.8 14.1 74 2.7 SSE 7 11 4 6 1016.6 1016.4 0.0
10/09:00am 18.6 18.8 14.1 75 2.6 SSW 6 9 3 5 1016.6 1016.4 0.0
10/08:30am 18.4 18.4 14.1 76 2.5 SSE 7 9 4 5 1016.1 1015.8 0.0
10/08:00am 18.1 18.8 14.6 80 2.0 S 4 9 2 5 1015.9 1015.6 0.0

Latest Capital City Observations: Canberra | Sydney | Melbourne | Brisbane | Adelaide | Perth | Hobart | Darwin

Other Formats:

Comma delimited format used in spreadsheet applications
http://www.bom.gov.au/fwo/IDV60901/IDV60901.95874.axf

JavaScript Object Notation format (JSON) in row-major order
http://www.bom.gov.au/fwo/IDV60901/IDV60901.95874.json